sensor_id;sensor_type;location;lat;lon;timestamp;P1;durP1;ratioP1;P2;durP2;ratioP2
59766;SDS011;46248;58.364;25.582;2023-03-11T00:03:12;1.85;;;1.63;;
59766;SDS011;46248;58.364;25.582;2023-03-11T00:06:36;3.50;;;1.67;;
59766;SDS011;46248;58.364;25.582;2023-03-11T00:10:01;2.45;;;1.63;;
59766;SDS011;46248;58.364;25.582;2023-03-11T00:13:24;3.53;;;2.00;;
59766;SDS011;46248;58.364;25.582;2023-03-11T00:16:46;5.22;;;1.88;;
59766;SDS011;46248;58.364;25.582;2023-03-11T00:20:13;5.45;;;1.60;;
59766;SDS011;46248;58.364;25.582;2023-03-11T00:23:38;3.67;;;2.20;;
59766;SDS011;46248;58.364;25.582;2023-03-11T00:27:00;7.70;;;2.40;;
59766;SDS011;46248;58.364;25.582;2023-03-11T00:30:23;5.20;;;1.50;;
59766;SDS011;46248;58.364;25.582;2023-03-11T00:33:46;4.15;;;2.42;;
59766;SDS011;46248;58.364;25.582;2023-03-11T00:37:08;2.25;;;1.42;;
59766;SDS011;46248;58.364;25.582;2023-03-11T00:40:32;4.47;;;1.55;;
59766;SDS011;46248;58.364;25.582;2023-03-11T00:43:56;2.33;;;1.38;;
59766;SDS011;46248;58.364;25.582;2023-03-11T00:47:17;6.97;;;2.20;;
59766;SDS011;46248;58.364;25.582;2023-03-11T00:50:39;3.50;;;1.92;;
59766;SDS011;46248;58.364;25.582;2023-03-11T00:54:02;2.35;;;1.67;;
59766;SDS011;46248;58.364;25.582;2023-03-11T00:57:25;3.00;;;1.60;;
59766;SDS011;46248;58.364;25.582;2023-03-11T01:00:48;1.83;;;1.40;;
59766;SDS011;46248;58.364;25.582;2023-03-11T01:04:10;1.77;;;1.40;;
59766;SDS011;46248;58.364;25.582;2023-03-11T01:07:32;2.58;;;1.90;;
59766;SDS011;46248;58.364;25.582;2023-03-11T01:10:55;2.03;;;1.30;;
59766;SDS011;46248;58.364;25.582;2023-03-11T01:14:18;5.53;;;2.00;;
59766;SDS011;46248;58.364;25.582;2023-03-11T01:17:41;2.80;;;1.77;;
59766;SDS011;46248;58.364;25.582;2023-03-11T01:21:03;2.08;;;1.48;;
59766;SDS011;46248;58.364;25.582;2023-03-11T01:24:25;4.45;;;1.65;;
59766;SDS011;46248;58.364;25.582;2023-03-11T01:27:47;4.15;;;1.45;;
59766;SDS011;46248;58.364;25.582;2023-03-11T01:31:11;4.45;;;1.65;;
59766;SDS011;46248;58.364;25.582;2023-03-11T01:34:33;2.42;;;1.70;;
59766;SDS011;46248;58.364;25.582;2023-03-11T01:37:55;2.70;;;1.48;;
59766;SDS011;46248;58.364;25.582;2023-03-11T01:41:18;5.32;;;1.45;;
59766;SDS011;46248;58.364;25.582;2023-03-11T01:44:40;2.25;;;1.45;;
59766;SDS011;46248;58.364;25.582;2023-03-11T01:48:03;4.68;;;1.77;;
59766;SDS011;46248;58.364;25.582;2023-03-11T01:51:26;5.70;;;1.60;;
59766;SDS011;46248;58.364;25.582;2023-03-11T01:54:51;4.90;;;2.05;;
59766;SDS011;46248;58.364;25.582;2023-03-11T01:58:15;1.30;;;1.13;;
59766;SDS011;46248;58.364;25.582;2023-03-11T02:01:40;1.60;;;1.02;;
59766;SDS011;46248;58.364;25.582;2023-03-11T02:05:11;3.40;;;1.67;;
59766;SDS011;46248;58.364;25.582;2023-03-11T02:08:33;3.88;;;1.38;;
59766;SDS011;46248;58.364;25.582;2023-03-11T02:11:55;4.18;;;1.50;;
59766;SDS011;46248;58.364;25.582;2023-03-11T02:15:18;4.80;;;1.35;;
59766;SDS011;46248;58.364;25.582;2023-03-11T02:18:41;1.38;;;0.82;;
59766;SDS011;46248;58.364;25.582;2023-03-11T02:22:05;2.67;;;1.15;;
59766;SDS011;46248;58.364;25.582;2023-03-11T02:25:30;3.35;;;1.73;;
59766;SDS011;46248;58.364;25.582;2023-03-11T02:32:21;2.05;;;1.10;;
59766;SDS011;46248;58.364;25.582;2023-03-11T02:35:44;3.38;;;1.02;;
59766;SDS011;46248;58.364;25.582;2023-03-11T02:39:06;1.23;;;1.10;;
59766;SDS011;46248;58.364;25.582;2023-03-11T02:42:29;2.88;;;1.10;;
59766;SDS011;46248;58.364;25.582;2023-03-11T02:45:54;2.20;;;1.48;;
59766;SDS011;46248;58.364;25.582;2023-03-11T02:49:17;3.30;;;1.23;;
59766;SDS011;46248;58.364;25.582;2023-03-11T02:52:41;1.20;;;1.00;;
59766;SDS011;46248;58.364;25.582;2023-03-11T02:56:03;1.15;;;1.05;;
59766;SDS011;46248;58.364;25.582;2023-03-11T02:59:25;1.55;;;0.88;;
59766;SDS011;46248;58.364;25.582;2023-03-11T03:02:49;1.73;;;0.93;;
59766;SDS011;46248;58.364;25.582;2023-03-11T03:06:11;5.57;;;1.10;;
59766;SDS011;46248;58.364;25.582;2023-03-11T03:09:34;2.60;;;1.17;;
59766;SDS011;46248;58.364;25.582;2023-03-11T03:12:56;3.30;;;1.13;;
59766;SDS011;46248;58.364;25.582;2023-03-11T03:16:18;2.22;;;1.70;;
59766;SDS011;46248;58.364;25.582;2023-03-11T03:19:41;1.13;;;1.02;;
59766;SDS011;46248;58.364;25.582;2023-03-11T03:23:03;3.97;;;1.30;;
59766;SDS011;46248;58.364;25.582;2023-03-11T03:26:26;3.70;;;1.50;;
59766;SDS011;46248;58.364;25.582;2023-03-11T03:29:48;2.55;;;1.27;;
59766;SDS011;46248;58.364;25.582;2023-03-11T03:33:10;2.65;;;1.42;;
59766;SDS011;46248;58.364;25.582;2023-03-11T03:36:34;4.18;;;1.92;;
59766;SDS011;46248;58.364;25.582;2023-03-11T03:39:56;1.33;;;1.23;;
59766;SDS011;46248;58.364;25.582;2023-03-11T03:43:18;2.42;;;0.85;;
59766;SDS011;46248;58.364;25.582;2023-03-11T03:46:40;2.67;;;1.40;;
59766;SDS011;46248;58.364;25.582;2023-03-11T03:50:02;4.15;;;1.45;;
59766;SDS011;46248;58.364;25.582;2023-03-11T03:53:27;1.27;;;1.15;;
59766;SDS011;46248;58.364;25.582;2023-03-11T03:56:49;1.85;;;1.30;;
59766;SDS011;46248;58.364;25.582;2023-03-11T04:00:11;2.30;;;1.35;;
59766;SDS011;46248;58.364;25.582;2023-03-11T04:03:35;2.78;;;1.50;;
59766;SDS011;46248;58.364;25.582;2023-03-11T04:06:58;2.63;;;1.40;;
59766;SDS011;46248;58.364;25.582;2023-03-11T04:10:21;1.52;;;1.40;;
59766;SDS011;46248;58.364;25.582;2023-03-11T04:13:43;2.95;;;1.30;;
59766;SDS011;46248;58.364;25.582;2023-03-11T04:17:05;3.58;;;1.73;;
59766;SDS011;46248;58.364;25.582;2023-03-11T04:20:27;4.65;;;1.20;;
59766;SDS011;46248;58.364;25.582;2023-03-11T04:23:48;2.80;;;1.58;;
59766;SDS011;46248;58.364;25.582;2023-03-11T04:27:13;1.63;;;1.15;;
59766;SDS011;46248;58.364;25.582;2023-03-11T04:30:35;1.48;;;1.38;;
59766;SDS011;46248;58.364;25.582;2023-03-11T04:33:57;3.67;;;1.85;;
59766;SDS011;46248;58.364;25.582;2023-03-11T04:37:20;4.20;;;2.65;;
59766;SDS011;46248;58.364;25.582;2023-03-11T04:40:42;1.52;;;1.40;;
59766;SDS011;46248;58.364;25.582;2023-03-11T04:44:06;2.88;;;1.50;;
59766;SDS011;46248;58.364;25.582;2023-03-11T04:47:28;3.88;;;1.92;;
59766;SDS011;46248;58.364;25.582;2023-03-11T04:50:49;1.60;;;1.50;;
59766;SDS011;46248;58.364;25.582;2023-03-11T04:54:12;2.33;;;1.65;;
59766;SDS011;46248;58.364;25.582;2023-03-11T04:57:35;4.78;;;1.98;;
59766;SDS011;46248;58.364;25.582;2023-03-11T05:00:59;3.10;;;1.73;;
59766;SDS011;46248;58.364;25.582;2023-03-11T05:04:21;1.48;;;1.25;;
59766;SDS011;46248;58.364;25.582;2023-03-11T05:07:43;4.07;;;1.90;;
59766;SDS011;46248;58.364;25.582;2023-03-11T05:11:05;5.65;;;2.17;;
59766;SDS011;46248;58.364;25.582;2023-03-11T05:14:27;3.58;;;1.83;;
59766;SDS011;46248;58.364;25.582;2023-03-11T05:17:51;3.28;;;1.52;;
59766;SDS011;46248;58.364;25.582;2023-03-11T05:21:13;2.17;;;1.50;;
59766;SDS011;46248;58.364;25.582;2023-03-11T05:24:36;2.33;;;1.60;;
59766;SDS011;46248;58.364;25.582;2023-03-11T05:27:58;2.55;;;1.70;;
59766;SDS011;46248;58.364;25.582;2023-03-11T05:31:20;4.68;;;1.75;;
59766;SDS011;46248;58.364;25.582;2023-03-11T05:34:43;4.85;;;2.10;;
59766;SDS011;46248;58.364;25.582;2023-03-11T05:38:05;2.38;;;2.05;;
59766;SDS011;46248;58.364;25.582;2023-03-11T05:41:28;3.47;;;1.63;;
59766;SDS011;46248;58.364;25.582;2023-03-11T05:44:49;3.95;;;1.60;;
59766;SDS011;46248;58.364;25.582;2023-03-11T05:48:11;3.67;;;2.08;;
59766;SDS011;46248;58.364;25.582;2023-03-11T05:51:35;4.10;;;2.17;;
59766;SDS011;46248;58.364;25.582;2023-03-11T05:54:57;3.97;;;2.30;;
59766;SDS011;46248;58.364;25.582;2023-03-11T05:58:19;4.93;;;2.50;;
59766;SDS011;46248;58.364;25.582;2023-03-11T06:01:41;6.93;;;2.58;;
59766;SDS011;46248;58.364;25.582;2023-03-11T06:05:03;6.40;;;3.05;;
59766;SDS011;46248;58.364;25.582;2023-03-11T06:08:29;5.97;;;2.28;;
59766;SDS011;46248;58.364;25.582;2023-03-11T06:11:53;3.15;;;1.42;;
59766;SDS011;46248;58.364;25.582;2023-03-11T06:15:15;6.45;;;3.10;;
59766;SDS011;46248;58.364;25.582;2023-03-11T06:18:37;5.80;;;2.15;;
59766;SDS011;46248;58.364;25.582;2023-03-11T06:21:58;5.40;;;1.95;;
59766;SDS011;46248;58.364;25.582;2023-03-11T06:25:22;3.88;;;1.88;;
59766;SDS011;46248;58.364;25.582;2023-03-11T06:28:44;4.72;;;1.88;;
59766;SDS011;46248;58.364;25.582;2023-03-11T06:32:07;5.15;;;2.67;;
59766;SDS011;46248;58.364;25.582;2023-03-11T06:35:29;4.95;;;2.20;;
59766;SDS011;46248;58.364;25.582;2023-03-11T06:38:51;2.72;;;2.25;;
59766;SDS011;46248;58.364;25.582;2023-03-11T06:42:15;3.08;;;2.55;;
59766;SDS011;46248;58.364;25.582;2023-03-11T06:45:37;6.18;;;2.35;;
59766;SDS011;46248;58.364;25.582;2023-03-11T06:48:59;5.32;;;2.72;;
59766;SDS011;46248;58.364;25.582;2023-03-11T06:52:25;6.18;;;2.90;;
59766;SDS011;46248;58.364;25.582;2023-03-11T06:55:56;6.32;;;2.30;;
59766;SDS011;46248;58.364;25.582;2023-03-11T06:59:21;3.17;;;1.88;;
59766;SDS011;46248;58.364;25.582;2023-03-11T07:02:43;6.03;;;2.58;;
59766;SDS011;46248;58.364;25.582;2023-03-11T07:06:05;5.13;;;1.88;;
59766;SDS011;46248;58.364;25.582;2023-03-11T07:09:31;7.90;;;2.35;;
59766;SDS011;46248;58.364;25.582;2023-03-11T07:12:53;2.60;;;1.83;;
59766;SDS011;46248;58.364;25.582;2023-03-11T07:16:17;3.10;;;2.00;;
59766;SDS011;46248;58.364;25.582;2023-03-11T07:19:39;6.60;;;2.25;;
59766;SDS011;46248;58.364;25.582;2023-03-11T07:23:01;4.10;;;2.25;;
59766;SDS011;46248;58.364;25.582;2023-03-11T07:26:24;9.55;;;2.95;;
59766;SDS011;46248;58.364;25.582;2023-03-11T07:29:46;9.35;;;3.10;;
59766;SDS011;46248;58.364;25.582;2023-03-11T07:33:10;7.43;;;2.45;;
59766;SDS011;46248;58.364;25.582;2023-03-11T07:36:32;6.90;;;3.45;;
59766;SDS011;46248;58.364;25.582;2023-03-11T07:39:54;4.78;;;2.28;;
59766;SDS011;46248;58.364;25.582;2023-03-11T07:43:16;3.92;;;1.98;;
59766;SDS011;46248;58.364;25.582;2023-03-11T07:46:39;6.00;;;2.33;;
59766;SDS011;46248;58.364;25.582;2023-03-11T07:50:02;4.55;;;2.50;;
59766;SDS011;46248;58.364;25.582;2023-03-11T07:53:25;5.97;;;2.65;;
59766;SDS011;46248;58.364;25.582;2023-03-11T07:56:47;6.05;;;2.95;;
59766;SDS011;46248;58.364;25.582;2023-03-11T08:00:09;4.53;;;2.92;;
59766;SDS011;46248;58.364;25.582;2023-03-11T08:03:32;4.47;;;2.97;;
59766;SDS011;46248;58.364;25.582;2023-03-11T08:06:55;6.43;;;2.90;;
59766;SDS011;46248;58.364;25.582;2023-03-11T08:10:18;4.43;;;2.90;;
59766;SDS011;46248;58.364;25.582;2023-03-11T08:13:40;4.03;;;2.83;;
59766;SDS011;46248;58.364;25.582;2023-03-11T08:17:02;6.88;;;3.25;;
59766;SDS011;46248;58.364;25.582;2023-03-11T08:20:25;4.55;;;3.10;;
59766;SDS011;46248;58.364;25.582;2023-03-11T08:23:48;7.05;;;3.33;;
59766;SDS011;46248;58.364;25.582;2023-03-11T08:27:11;7.10;;;3.20;;
59766;SDS011;46248;58.364;25.582;2023-03-11T08:30:33;8.00;;;2.75;;
59766;SDS011;46248;58.364;25.582;2023-03-11T08:33:57;5.53;;;2.63;;
59766;SDS011;46248;58.364;25.582;2023-03-11T08:37:22;3.83;;;2.45;;
59766;SDS011;46248;58.364;25.582;2023-03-11T08:40:45;8.18;;;3.25;;
59766;SDS011;46248;58.364;25.582;2023-03-11T08:44:08;5.43;;;2.65;;
59766;SDS011;46248;58.364;25.582;2023-03-11T08:47:32;5.35;;;3.13;;
59766;SDS011;46248;58.364;25.582;2023-03-11T08:50:55;6.15;;;3.25;;
59766;SDS011;46248;58.364;25.582;2023-03-11T08:54:18;6.00;;;2.97;;
59766;SDS011;46248;58.364;25.582;2023-03-11T08:57:42;6.85;;;3.65;;
59766;SDS011;46248;58.364;25.582;2023-03-11T09:01:04;5.32;;;3.08;;
59766;SDS011;46248;58.364;25.582;2023-03-11T09:04:28;7.05;;;3.53;;
59766;SDS011;46248;58.364;25.582;2023-03-11T09:07:50;3.58;;;2.65;;
59766;SDS011;46248;58.364;25.582;2023-03-11T09:11:22;5.07;;;2.72;;
59766;SDS011;46248;58.364;25.582;2023-03-11T09:14:46;5.03;;;3.38;;
59766;SDS011;46248;58.364;25.582;2023-03-11T09:18:10;5.20;;;2.38;;
59766;SDS011;46248;58.364;25.582;2023-03-11T09:21:33;5.63;;;2.42;;
59766;SDS011;46248;58.364;25.582;2023-03-11T09:24:55;3.35;;;2.30;;
59766;SDS011;46248;58.364;25.582;2023-03-11T09:28:17;4.53;;;2.30;;
59766;SDS011;46248;58.364;25.582;2023-03-11T09:31:41;7.18;;;2.20;;
59766;SDS011;46248;58.364;25.582;2023-03-11T09:35:03;4.57;;;2.38;;
59766;SDS011;46248;58.364;25.582;2023-03-11T09:38:25;5.68;;;2.78;;
59766;SDS011;46248;58.364;25.582;2023-03-11T09:41:49;5.60;;;2.78;;
59766;SDS011;46248;58.364;25.582;2023-03-11T09:45:18;3.53;;;2.60;;
59766;SDS011;46248;58.364;25.582;2023-03-11T09:48:46;6.95;;;2.38;;
59766;SDS011;46248;58.364;25.582;2023-03-11T09:52:14;5.90;;;3.30;;
59766;SDS011;46248;58.364;25.582;2023-03-11T09:55:39;5.80;;;2.88;;
59766;SDS011;46248;58.364;25.582;2023-03-11T09:59:05;5.47;;;2.60;;
59766;SDS011;46248;58.364;25.582;2023-03-11T10:02:34;3.88;;;2.47;;
59766;SDS011;46248;58.364;25.582;2023-03-11T10:06:01;4.25;;;2.45;;
59766;SDS011;46248;58.364;25.582;2023-03-11T10:09:32;4.75;;;3.08;;
59766;SDS011;46248;58.364;25.582;2023-03-11T10:13:00;4.22;;;3.33;;
59766;SDS011;46248;58.364;25.582;2023-03-11T10:16:34;4.82;;;3.08;;
59766;SDS011;46248;58.364;25.582;2023-03-11T10:20:04;7.40;;;3.70;;
59766;SDS011;46248;58.364;25.582;2023-03-11T10:23:40;5.13;;;2.38;;
59766;SDS011;46248;58.364;25.582;2023-03-11T10:27:16;4.38;;;2.35;;
59766;SDS011;46248;58.364;25.582;2023-03-11T10:30:44;4.72;;;2.40;;
59766;SDS011;46248;58.364;25.582;2023-03-11T10:34:11;11.07;;;4.30;;
59766;SDS011;46248;58.364;25.582;2023-03-11T10:37:41;5.28;;;2.90;;
59766;SDS011;46248;58.364;25.582;2023-03-11T10:41:13;5.80;;;3.28;;
59766;SDS011;46248;58.364;25.582;2023-03-11T10:44:40;8.80;;;3.00;;
59766;SDS011;46248;58.364;25.582;2023-03-11T10:48:06;7.45;;;3.08;;
59766;SDS011;46248;58.364;25.582;2023-03-11T10:51:31;2.92;;;2.20;;
59766;SDS011;46248;58.364;25.582;2023-03-11T10:54:58;7.40;;;3.67;;
59766;SDS011;46248;58.364;25.582;2023-03-11T10:58:24;5.18;;;2.65;;
59766;SDS011;46248;58.364;25.582;2023-03-11T11:01:52;3.80;;;2.47;;
59766;SDS011;46248;58.364;25.582;2023-03-11T11:09:04;6.13;;;2.80;;
59766;SDS011;46248;58.364;25.582;2023-03-11T11:12:33;3.97;;;2.50;;
59766;SDS011;46248;58.364;25.582;2023-03-11T11:15:58;4.18;;;2.35;;
59766;SDS011;46248;58.364;25.582;2023-03-11T11:19:21;6.72;;;3.53;;
59766;SDS011;46248;58.364;25.582;2023-03-11T11:22:46;5.40;;;3.00;;
59766;SDS011;46248;58.364;25.582;2023-03-11T11:26:16;4.83;;;3.03;;
59766;SDS011;46248;58.364;25.582;2023-03-11T11:29:39;4.57;;;2.67;;
59766;SDS011;46248;58.364;25.582;2023-03-11T11:36:34;5.75;;;3.20;;
59766;SDS011;46248;58.364;25.582;2023-03-11T11:39:58;7.90;;;3.65;;
59766;SDS011;46248;58.364;25.582;2023-03-11T11:43:33;6.75;;;3.67;;
59766;SDS011;46248;58.364;25.582;2023-03-11T11:47:02;6.10;;;2.83;;
59766;SDS011;46248;58.364;25.582;2023-03-11T11:50:33;7.10;;;4.68;;
59766;SDS011;46248;58.364;25.582;2023-03-11T11:54:12;10.13;;;4.55;;
59766;SDS011;46248;58.364;25.582;2023-03-11T11:57:37;8.50;;;2.72;;
59766;SDS011;46248;58.364;25.582;2023-03-11T12:01:02;15.60;;;7.20;;
59766;SDS011;46248;58.364;25.582;2023-03-11T12:04:43;7.93;;;3.50;;
59766;SDS011;46248;58.364;25.582;2023-03-11T12:08:12;8.30;;;4.43;;
59766;SDS011;46248;58.364;25.582;2023-03-11T12:11:40;5.72;;;3.80;;
59766;SDS011;46248;58.364;25.582;2023-03-11T12:15:11;8.18;;;3.47;;
59766;SDS011;46248;58.364;25.582;2023-03-11T12:18:40;6.38;;;3.30;;
59766;SDS011;46248;58.364;25.582;2023-03-11T12:26:11;6.07;;;3.83;;
59766;SDS011;46248;58.364;25.582;2023-03-11T12:29:38;8.13;;;4.47;;
59766;SDS011;46248;58.364;25.582;2023-03-11T12:33:05;13.32;;;7.45;;
59766;SDS011;46248;58.364;25.582;2023-03-11T12:36:35;11.82;;;6.18;;
59766;SDS011;46248;58.364;25.582;2023-03-11T12:39:59;8.52;;;4.25;;
59766;SDS011;46248;58.364;25.582;2023-03-11T12:44:01;12.20;;;5.22;;
59766;SDS011;46248;58.364;25.582;2023-03-11T12:47:26;5.22;;;3.83;;
59766;SDS011;46248;58.364;25.582;2023-03-11T12:50:48;8.20;;;4.28;;
59766;SDS011;46248;58.364;25.582;2023-03-11T12:54:20;11.55;;;4.40;;
59766;SDS011;46248;58.364;25.582;2023-03-11T12:57:51;7.22;;;3.03;;
59766;SDS011;46248;58.364;25.582;2023-03-11T13:01:28;4.50;;;2.90;;
59766;SDS011;46248;58.364;25.582;2023-03-11T13:05:06;4.95;;;3.05;;
59766;SDS011;46248;58.364;25.582;2023-03-11T13:08:43;9.55;;;4.28;;
59766;SDS011;46248;58.364;25.582;2023-03-11T13:16:34;9.73;;;4.78;;
59766;SDS011;46248;58.364;25.582;2023-03-11T13:19:58;10.30;;;4.40;;
59766;SDS011;46248;58.364;25.582;2023-03-11T13:23:31;12.10;;;5.82;;
59766;SDS011;46248;58.364;25.582;2023-03-11T13:26:55;60.22;;;30.08;;
59766;SDS011;46248;58.364;25.582;2023-03-11T13:30:25;11.13;;;6.07;;
59766;SDS011;46248;58.364;25.582;2023-03-11T13:33:54;6.15;;;4.05;;
59766;SDS011;46248;58.364;25.582;2023-03-11T13:37:25;16.85;;;5.90;;
59766;SDS011;46248;58.364;25.582;2023-03-11T13:40:56;9.25;;;5.25;;
59766;SDS011;46248;58.364;25.582;2023-03-11T13:44:24;9.90;;;5.15;;
59766;SDS011;46248;58.364;25.582;2023-03-11T13:47:49;9.43;;;4.70;;
59766;SDS011;46248;58.364;25.582;2023-03-11T13:51:15;24.45;;;8.80;;
59766;SDS011;46248;58.364;25.582;2023-03-11T13:54:45;11.70;;;5.05;;
59766;SDS011;46248;58.364;25.582;2023-03-11T13:58:18;11.45;;;5.22;;
59766;SDS011;46248;58.364;25.582;2023-03-11T14:01:46;9.02;;;4.72;;
59766;SDS011;46248;58.364;25.582;2023-03-11T14:05:11;6.20;;;4.25;;
59766;SDS011;46248;58.364;25.582;2023-03-11T14:08:36;11.25;;;6.05;;
59766;SDS011;46248;58.364;25.582;2023-03-11T14:12:02;18.60;;;7.82;;
59766;SDS011;46248;58.364;25.582;2023-03-11T14:15:28;20.02;;;8.23;;
59766;SDS011;46248;58.364;25.582;2023-03-11T14:19:01;30.42;;;9.20;;
59766;SDS011;46248;58.364;25.582;2023-03-11T14:22:27;20.13;;;8.95;;
59766;SDS011;46248;58.364;25.582;2023-03-11T14:25:56;30.63;;;10.25;;
59766;SDS011;46248;58.364;25.582;2023-03-11T14:29:20;14.38;;;5.95;;
59766;SDS011;46248;58.364;25.582;2023-03-11T14:32:55;20.73;;;7.35;;
59766;SDS011;46248;58.364;25.582;2023-03-11T14:36:20;20.60;;;8.43;;
59766;SDS011;46248;58.364;25.582;2023-03-11T14:39:42;15.13;;;7.30;;
59766;SDS011;46248;58.364;25.582;2023-03-11T14:43:09;16.33;;;8.98;;
59766;SDS011;46248;58.364;25.582;2023-03-11T14:46:32;49.65;;;20.42;;
59766;SDS011;46248;58.364;25.582;2023-03-11T14:49:55;63.67;;;27.15;;
59766;SDS011;46248;58.364;25.582;2023-03-11T14:53:20;28.45;;;13.93;;
59766;SDS011;46248;58.364;25.582;2023-03-11T14:56:47;28.85;;;15.13;;
59766;SDS011;46248;58.364;25.582;2023-03-11T15:00:17;21.27;;;10.40;;
59766;SDS011;46248;58.364;25.582;2023-03-11T15:03:44;15.57;;;7.47;;
59766;SDS011;46248;58.364;25.582;2023-03-11T15:07:10;10.13;;;5.68;;
59766;SDS011;46248;58.364;25.582;2023-03-11T15:10:42;15.93;;;7.63;;
59766;SDS011;46248;58.364;25.582;2023-03-11T15:14:23;17.98;;;9.00;;
59766;SDS011;46248;58.364;25.582;2023-03-11T15:17:50;15.35;;;6.43;;
59766;SDS011;46248;58.364;25.582;2023-03-11T15:21:13;15.50;;;6.88;;
59766;SDS011;46248;58.364;25.582;2023-03-11T15:24:38;16.30;;;8.40;;
59766;SDS011;46248;58.364;25.582;2023-03-11T15:28:13;14.68;;;7.28;;
59766;SDS011;46248;58.364;25.582;2023-03-11T15:31:40;30.33;;;14.73;;
59766;SDS011;46248;58.364;25.582;2023-03-11T15:35:15;12.65;;;6.40;;
59766;SDS011;46248;58.364;25.582;2023-03-11T15:38:38;14.65;;;5.72;;
59766;SDS011;46248;58.364;25.582;2023-03-11T15:42:02;12.95;;;6.78;;
59766;SDS011;46248;58.364;25.582;2023-03-11T15:45:34;16.35;;;8.23;;
59766;SDS011;46248;58.364;25.582;2023-03-11T15:48:56;7.95;;;4.88;;
59766;SDS011;46248;58.364;25.582;2023-03-11T15:52:18;13.18;;;5.82;;
59766;SDS011;46248;58.364;25.582;2023-03-11T15:55:40;14.55;;;7.70;;
59766;SDS011;46248;58.364;25.582;2023-03-11T15:59:03;10.40;;;5.72;;
59766;SDS011;46248;58.364;25.582;2023-03-11T16:02:27;20.73;;;9.77;;
59766;SDS011;46248;58.364;25.582;2023-03-11T16:05:49;10.77;;;4.80;;
59766;SDS011;46248;58.364;25.582;2023-03-11T16:09:11;10.32;;;6.35;;
59766;SDS011;46248;58.364;25.582;2023-03-11T16:12:34;12.77;;;6.75;;
59766;SDS011;46248;58.364;25.582;2023-03-11T16:15:57;16.35;;;8.38;;
59766;SDS011;46248;58.364;25.582;2023-03-11T16:19:21;24.02;;;10.63;;
59766;SDS011;46248;58.364;25.582;2023-03-11T16:22:43;42.90;;;15.70;;
59766;SDS011;46248;58.364;25.582;2023-03-11T16:26:05;38.90;;;13.45;;
59766;SDS011;46248;58.364;25.582;2023-03-11T16:29:30;66.20;;;27.10;;
59766;SDS011;46248;58.364;25.582;2023-03-11T16:32:53;59.58;;;24.02;;
59766;SDS011;46248;58.364;25.582;2023-03-11T16:36:16;55.20;;;24.25;;
59766;SDS011;46248;58.364;25.582;2023-03-11T16:39:38;29.77;;;13.85;;
59766;SDS011;46248;58.364;25.582;2023-03-11T16:43:01;22.00;;;9.00;;
59766;SDS011;46248;58.364;25.582;2023-03-11T16:46:24;14.55;;;7.65;;
59766;SDS011;46248;58.364;25.582;2023-03-11T16:49:48;12.77;;;6.43;;
59766;SDS011;46248;58.364;25.582;2023-03-11T16:53:12;14.35;;;7.13;;
59766;SDS011;46248;58.364;25.582;2023-03-11T16:56:36;7.55;;;4.90;;
59766;SDS011;46248;58.364;25.582;2023-03-11T17:00:00;13.45;;;8.15;;
59766;SDS011;46248;58.364;25.582;2023-03-11T17:03:24;14.68;;;8.00;;
59766;SDS011;46248;58.364;25.582;2023-03-11T17:06:54;20.20;;;9.32;;
59766;SDS011;46248;58.364;25.582;2023-03-11T17:10:17;37.55;;;15.65;;
59766;SDS011;46248;58.364;25.582;2023-03-11T17:13:38;23.45;;;10.48;;
59766;SDS011;46248;58.364;25.582;2023-03-11T17:17:00;20.20;;;8.80;;
59766;SDS011;46248;58.364;25.582;2023-03-11T17:20:22;24.42;;;11.52;;
59766;SDS011;46248;58.364;25.582;2023-03-11T17:23:45;20.02;;;9.30;;
59766;SDS011;46248;58.364;25.582;2023-03-11T17:27:07;14.70;;;7.93;;
59766;SDS011;46248;58.364;25.582;2023-03-11T17:30:29;19.63;;;9.40;;
59766;SDS011;46248;58.364;25.582;2023-03-11T17:33:56;23.77;;;9.48;;
59766;SDS011;46248;58.364;25.582;2023-03-11T17:37:19;18.23;;;6.82;;
59766;SDS011;46248;58.364;25.582;2023-03-11T17:40:42;21.55;;;9.75;;
59766;SDS011;46248;58.364;25.582;2023-03-11T17:44:04;19.08;;;9.70;;
59766;SDS011;46248;58.364;25.582;2023-03-11T17:47:27;19.05;;;9.25;;
59766;SDS011;46248;58.364;25.582;2023-03-11T17:50:48;9.48;;;5.93;;
59766;SDS011;46248;58.364;25.582;2023-03-11T17:54:10;18.60;;;7.18;;
59766;SDS011;46248;58.364;25.582;2023-03-11T17:57:33;25.13;;;12.10;;
59766;SDS011;46248;58.364;25.582;2023-03-11T18:01:05;20.25;;;11.45;;
59766;SDS011;46248;58.364;25.582;2023-03-11T18:04:28;13.43;;;6.97;;
59766;SDS011;46248;58.364;25.582;2023-03-11T18:07:49;11.98;;;6.03;;
59766;SDS011;46248;58.364;25.582;2023-03-11T18:11:12;6.07;;;3.90;;
59766;SDS011;46248;58.364;25.582;2023-03-11T18:14:39;12.80;;;6.60;;
59766;SDS011;46248;58.364;25.582;2023-03-11T18:18:01;11.80;;;5.07;;
59766;SDS011;46248;58.364;25.582;2023-03-11T18:21:24;14.80;;;5.65;;
59766;SDS011;46248;58.364;25.582;2023-03-11T18:24:47;10.88;;;5.72;;
59766;SDS011;46248;58.364;25.582;2023-03-11T18:28:09;13.85;;;5.32;;
59766;SDS011;46248;58.364;25.582;2023-03-11T18:31:32;17.98;;;6.78;;
59766;SDS011;46248;58.364;25.582;2023-03-11T18:34:54;10.82;;;5.00;;
59766;SDS011;46248;58.364;25.582;2023-03-11T18:38:16;19.02;;;7.05;;
59766;SDS011;46248;58.364;25.582;2023-03-11T18:41:38;15.38;;;5.80;;
59766;SDS011;46248;58.364;25.582;2023-03-11T18:45:01;14.07;;;7.55;;
59766;SDS011;46248;58.364;25.582;2023-03-11T18:48:24;9.65;;;4.15;;
59766;SDS011;46248;58.364;25.582;2023-03-11T18:51:46;12.85;;;5.53;;
59766;SDS011;46248;58.364;25.582;2023-03-11T18:55:08;14.07;;;6.15;;
59766;SDS011;46248;58.364;25.582;2023-03-11T18:58:30;10.88;;;5.10;;
59766;SDS011;46248;58.364;25.582;2023-03-11T19:01:52;11.77;;;5.05;;
59766;SDS011;46248;58.364;25.582;2023-03-11T19:05:15;9.50;;;4.57;;
59766;SDS011;46248;58.364;25.582;2023-03-11T19:08:38;8.48;;;4.60;;
59766;SDS011;46248;58.364;25.582;2023-03-11T19:12:00;6.97;;;3.90;;
59766;SDS011;46248;58.364;25.582;2023-03-11T19:15:22;7.60;;;4.10;;
59766;SDS011;46248;58.364;25.582;2023-03-11T19:18:43;5.47;;;2.67;;
59766;SDS011;46248;58.364;25.582;2023-03-11T19:22:07;6.43;;;3.00;;
59766;SDS011;46248;58.364;25.582;2023-03-11T19:25:29;6.10;;;3.60;;
59766;SDS011;46248;58.364;25.582;2023-03-11T19:28:52;10.20;;;4.13;;
59766;SDS011;46248;58.364;25.582;2023-03-11T19:32:13;8.75;;;4.00;;
59766;SDS011;46248;58.364;25.582;2023-03-11T19:35:36;14.63;;;6.90;;
59766;SDS011;46248;58.364;25.582;2023-03-11T19:38:59;10.80;;;5.88;;
59766;SDS011;46248;58.364;25.582;2023-03-11T19:42:21;13.90;;;6.38;;
59766;SDS011;46248;58.364;25.582;2023-03-11T19:45:45;6.65;;;4.38;;
59766;SDS011;46248;58.364;25.582;2023-03-11T19:49:10;8.10;;;3.72;;
59766;SDS011;46248;58.364;25.582;2023-03-11T19:52:32;8.77;;;4.18;;
59766;SDS011;46248;58.364;25.582;2023-03-11T19:55:56;9.95;;;4.40;;
59766;SDS011;46248;58.364;25.582;2023-03-11T19:59:19;3.22;;;2.58;;
59766;SDS011;46248;58.364;25.582;2023-03-11T20:02:41;7.28;;;3.58;;
59766;SDS011;46248;58.364;25.582;2023-03-11T20:06:04;7.28;;;3.67;;
59766;SDS011;46248;58.364;25.582;2023-03-11T20:09:26;7.63;;;3.72;;
59766;SDS011;46248;58.364;25.582;2023-03-11T20:12:50;4.65;;;3.28;;
59766;SDS011;46248;58.364;25.582;2023-03-11T20:16:21;8.40;;;4.03;;
59766;SDS011;46248;58.364;25.582;2023-03-11T20:19:43;5.55;;;3.72;;
59766;SDS011;46248;58.364;25.582;2023-03-11T20:23:05;5.28;;;3.33;;
59766;SDS011;46248;58.364;25.582;2023-03-11T20:26:27;5.55;;;3.90;;
59766;SDS011;46248;58.364;25.582;2023-03-11T20:29:50;8.27;;;4.47;;